Time;durP1;ratioP1;P1;durP2;ratioP2;P2;SDS_P1;SDS_P2;PMS_P1;PMS_P2;Temp;Humidity;BMP_temperature;BMP_pressure;BME280_temperature;BME280_humidity;BME280_pressure;Samples;Min_cycle;Max_cycle;Signal;HPM_P1;HPM_P2
2023/08/15 00:01:04;;;;;;;0.10;0.10;;;;;;;19.80;100.00;99072.06;5092857;28;20191;-54
2023/08/15 00:03:51;;;;;;;0.10;0.10;;;;;;;19.73;100.00;99068.31;5092844;28;20187;-54
2023/08/15 00:06:39;;;;;;;0.10;0.10;;;;;;;19.79;100.00;99062.31;5092674;28;20198;-55
2023/08/15 00:09:25;;;;;;;0.10;0.10;;;;;;;19.87;100.00;99059.63;5092846;28;20702;-54
2023/08/15 00:12:13;;;;;;;0.10;0.10;;;;;;;19.71;100.00;99065.78;5092430;28;20221;-55
2023/08/15 00:14:59;;;;;;;0.10;0.10;;;;;;;19.84;100.00;99051.06;5092786;28;20245;-55
2023/08/15 00:17:46;;;;;;;0.10;0.10;;;;;;;19.83;100.00;99055.59;5092682;28;20194;-55
2023/08/15 00:20:33;;;;;;;0.10;0.10;;;;;;;19.85;100.00;99058.13;5092636;28;20194;-55
2023/08/15 00:23:22;;;;;;;0.00;0.00;;;;;;;19.70;100.00;99049.81;5090409;28;20568;-55
2023/08/15 00:26:09;;;;;;;0.10;0.10;;;;;;;19.80;100.00;99049.72;5092552;28;20207;-54
2023/08/15 00:28:55;;;;;;;0.10;0.10;;;;;;;19.70;100.00;99047.13;5092556;28;20194;-55
2023/08/15 00:31:42;;;;;;;0.10;0.10;;;;;;;19.82;100.00;99045.84;5092293;28;20218;-54
2023/08/15 00:34:29;;;;;;;0.10;0.10;;;;;;;19.66;100.00;99043.06;5091319;28;20361;-55
2023/08/15 00:37:16;;;;;;;0.10;0.10;;;;;;;19.67;100.00;99058.19;5089831;28;20713;-55
2023/08/15 00:40:06;;;;;;;0.17;0.17;;;;;;;19.73;100.00;99053.03;5092424;28;20203;-55
2023/08/15 00:42:53;;;;;;;0.10;0.10;;;;;;;19.62;100.00;99045.25;5092406;28;20195;-54
2023/08/15 00:45:42;;;;;;;0.10;0.10;;;;;;;19.63;100.00;99043.38;5092503;28;20199;-55
2023/08/15 00:48:31;;;;;;;0.10;0.10;;;;;;;19.58;100.00;99051.91;5092442;28;20210;-55
2023/08/15 00:51:18;;;;;;;0.10;0.10;;;;;;;19.52;100.00;99052.53;5091035;28;20269;-55
2023/08/15 00:54:06;;;;;;;0.10;0.10;;;;;;;19.76;100.00;99049.16;5090741;28;20194;-55
2023/08/15 00:56:54;;;;;;;0.10;0.10;;;;;;;19.67;100.00;99045.59;5091339;28;20191;-55
2023/08/15 00:59:43;;;;;;;0.10;0.10;;;;;;;19.53;100.00;99040.78;5092169;28;20202;-55
2023/08/15 01:02:30;;;;;;;0.00;0.00;;;;;;;19.56;100.00;99047.69;5091040;28;20314;-54
2023/08/15 01:05:19;;;;;;;0.10;0.10;;;;;;;19.48;100.00;99044.91;5096065;28;20221;-54
2023/08/15 01:08:07;;;;;;;0.10;0.10;;;;;;;19.37;100.00;99040.66;5093719;28;20203;-55
2023/08/15 01:10:54;;;;;;;0.10;0.10;;;;;;;19.38;100.00;99040.50;5095988;28;20194;-55
2023/08/15 01:13:49;;;;;;;0.10;0.10;;;;;;;19.37;100.00;99038.81;5096060;28;20195;-54
2023/08/15 01:16:42;;;;;;;0.20;0.20;;;;;;;19.42;100.00;99032.97;5094916;28;20199;-55
2023/08/15 01:19:37;;;;;;;0.10;0.10;;;;;;;19.49;100.00;99022.44;5096043;28;20195;-54
2023/08/15 01:22:29;;;;;;;0.10;0.10;;;;;;;19.66;100.00;99013.50;5094373;28;20195;-55
2023/08/15 01:25:17;;;;;;;0.10;0.10;;;;;;;19.49;100.00;99019.75;5095822;28;20305;-54
2023/08/15 01:28:04;;;;;;;0.20;0.20;;;;;;;19.42;100.00;99024.94;5095713;28;20674;-54
2023/08/15 01:30:57;;;;;;;0.10;0.10;;;;;;;19.40;100.00;99035.00;5095580;28;20261;-54
2023/08/15 01:33:51;;;;;;;0.10;0.10;;;;;;;19.37;100.00;99024.53;5095699;28;20207;-54
2023/08/15 01:36:44;;;;;;;0.10;0.10;;;;;;;19.22;100.00;99026.13;5094650;28;20257;-55
2023/08/15 01:39:33;;;;;;;0.10;0.10;;;;;;;19.20;100.00;99020.03;5095441;28;20195;-55
2023/08/15 01:42:23;;;;;;;0.10;0.10;;;;;;;19.19;100.00;99019.19;5095476;28;20199;-55
2023/08/15 01:45:12;;;;;;;0.10;0.10;;;;;;;19.25;100.00;99015.91;5095507;28;20199;-55
2023/08/15 01:48:00;;;;;;;0.10;0.10;;;;;;;19.23;100.00;99028.66;5095459;28;20190;-55
2023/08/15 01:50:46;;;;;;;0.10;0.10;;;;;;;19.19;100.00;99032.63;5095523;28;20195;-55
2023/08/15 01:53:34;;;;;;;0.10;0.10;;;;;;;19.13;100.00;99023.38;5094166;28;20225;-54
2023/08/15 01:56:20;;;;;;;0.10;0.10;;;;;;;19.06;100.00;99016.09;5095275;28;20233;-54
2023/08/15 01:59:09;;;;;;;0.10;0.10;;;;;;;19.16;100.00;99015.00;5094160;28;20200;-54
2023/08/15 02:01:56;;;;;;;0.10;0.10;;;;;;;19.29;100.00;99021.78;5095169;28;20190;-55
2023/08/15 02:04:43;;;;;;;0.10;0.10;;;;;;;19.28;100.00;99017.41;5094102;28;20199;-55
2023/08/15 02:07:30;;;;;;;0.10;0.10;;;;;;;19.34;100.00;99011.44;5093953;28;20186;-55
2023/08/15 02:10:17;;;;;;;0.10;0.10;;;;;;;19.33;100.00;99017.81;5095302;28;20206;-55
2023/08/15 02:13:07;;;;;;;0.10;0.10;;;;;;;19.37;100.00;99035.28;5094835;28;20288;-54
2023/08/15 02:15:55;;;;;;;0.10;0.10;;;;;;;19.40;100.00;99024.25;5093720;28;20203;-54
2023/08/15 02:18:42;;;;;;;0.10;0.10;;;;;;;19.30;100.00;99029.72;5093900;28;20198;-55
2023/08/15 02:21:29;;;;;;;0.10;0.10;;;;;;;19.50;100.00;99021.44;5093822;28;20191;-54
2023/08/15 02:24:16;;;;;;;0.10;0.10;;;;;;;19.38;100.00;99016.31;5094679;28;20195;-55
2023/08/15 02:27:02;;;;;;;0.10;0.10;;;;;;;19.52;100.00;99009.53;5094574;28;20194;-55
2023/08/15 02:29:51;;;;;;;0.10;0.10;;;;;;;19.39;100.00;99022.53;5094783;28;20210;-55
2023/08/15 02:32:39;;;;;;;0.10;0.10;;;;;;;19.30;100.00;99037.78;5094361;28;20222;-55
2023/08/15 02:35:26;;;;;;;0.00;0.00;;;;;;;19.45;100.00;99035.34;5094432;28;20210;-55
2023/08/15 02:38:13;;;;;;;0.10;0.10;;;;;;;19.44;100.00;99025.59;5093275;28;20195;-55
2023/08/15 02:41:00;;;;;;;0.10;0.10;;;;;;;19.40;100.00;99022.41;5094426;28;20277;-54
2023/08/15 02:43:47;;;;;;;0.10;0.10;;;;;;;19.58;100.00;99019.66;5094565;28;20325;-55
2023/08/15 02:46:34;;;;;;;0.10;0.10;;;;;;;19.60;100.00;99027.59;5094093;28;20214;-54
2023/08/15 02:49:22;;;;;;;0.10;0.10;;;;;;;19.37;100.00;99017.31;5093911;28;20199;-54
2023/08/15 02:52:09;;;;;;;0.10;0.10;;;;;;;19.28;100.00;99018.25;5091807;28;20285;-55
2023/08/15 02:54:55;;;;;;;0.10;0.10;;;;;;;19.20;100.00;99028.09;5093071;28;20199;-55
2023/08/15 02:57:44;;;;;;;0.10;0.10;;;;;;;19.20;100.00;99017.34;5092963;28;20241;-55
2023/08/15 03:00:31;;;;;;;0.10;0.10;;;;;;;19.25;100.00;99015.06;5092751;28;20229;-55
2023/08/15 03:03:18;;;;;;;0.10;0.10;;;;;;;19.35;100.00;99015.81;5093890;28;20199;-55
2023/08/15 03:06:06;;;;;;;0.10;0.10;;;;;;;19.43;100.00;99018.53;5093946;28;20203;-54
2023/08/15 03:08:53;;;;;;;0.10;0.10;;;;;;;19.39;100.00;99019.84;5092440;28;20198;-55
2023/08/15 03:11:40;;;;;;;0.10;0.10;;;;;;;19.27;100.00;99026.47;5093763;28;20190;-55
2023/08/15 03:14:28;;;;;;;0.10;0.10;;;;;;;19.32;100.00;99030.41;5093632;28;20194;-55
2023/08/15 03:17:18;;;;;;;0.10;0.10;;;;;;;19.31;100.00;99028.72;5092608;28;20668;-55
2023/08/15 03:20:09;;;;;;;0.10;0.10;;;;;;;19.25;100.00;99041.91;5093669;28;20207;-55
2023/08/15 03:22:57;;;;;;;0.10;0.10;;;;;;;19.21;100.00;99049.44;5092673;28;20191;-55
2023/08/15 03:25:43;;;;;;;0.10;0.10;;;;;;;19.38;100.00;99058.47;5093010;28;20222;-55
2023/08/15 03:28:31;;;;;;;0.00;0.00;;;;;;;19.42;100.00;99075.97;5092483;28;20216;-55
2023/08/15 03:31:18;;;;;;;0.10;0.10;;;;;;;19.59;100.00;99080.50;5092472;28;20203;-54
2023/08/15 03:34:10;;;;;;;0.10;0.10;;;;;;;19.60;100.00;99086.72;5091816;28;20217;-54
2023/08/15 03:36:57;;;;;;;0.10;0.10;;;;;;;19.64;100.00;99085.38;5090795;28;20234;-54
2023/08/15 03:39:45;;;;;;;0.10;0.10;;;;;;;19.64;100.00;99096.97;5093310;28;20198;-55
2023/08/15 03:42:34;;;;;;;0.10;0.10;;;;;;;19.62;100.00;99103.50;5092955;28;20209;-55
2023/08/15 03:45:21;;;;;;;0.10;0.10;;;;;;;19.76;100.00;99110.16;5092270;28;20194;-54
2023/08/15 03:48:09;;;;;;;0.10;0.10;;;;;;;19.82;100.00;99094.25;5093073;28;20199;-55
2023/08/15 03:50:57;;;;;;;0.10;0.10;;;;;;;19.99;100.00;99109.47;5092906;28;20628;-55
2023/08/15 03:53:43;;;;;;;0.10;0.10;;;;;;;20.07;100.00;99110.50;5091578;28;20221;-55
2023/08/15 03:56:32;;;;;;;0.10;0.10;;;;;;;20.01;100.00;99117.38;5092926;28;20194;-54
2023/08/15 03:59:19;;;;;;;0.10;0.10;;;;;;;20.02;100.00;99135.19;5091761;28;20264;-55
2023/08/15 04:02:06;;;;;;;0.10;0.10;;;;;;;20.18;100.00;99140.69;5092864;28;20285;-55
2023/08/15 04:04:53;;;;;;;0.10;0.10;;;;;;;20.04;100.00;99148.47;5091817;28;20198;-55
2023/08/15 04:07:41;;;;;;;0.10;0.10;;;;;;;19.98;100.00;99180.38;5091538;28;20293;-55
2023/08/15 04:10:28;;;;;;;0.10;0.10;;;;;;;20.02;100.00;99179.06;5092746;28;20195;-55
2023/08/15 04:13:17;;;;;;;0.10;0.10;;;;;;;20.05;100.00;99147.47;5092484;28;20230;-55
2023/08/15 04:16:05;;;;;;;0.10;0.10;;;;;;;19.96;100.00;99108.94;5091770;28;20202;-55
2023/08/15 04:18:52;;;;;;;0.10;0.10;;;;;;;19.94;100.00;99141.34;5091672;28;20195;-55
2023/08/15 04:21:39;;;;;;;0.10;0.10;;;;;;;19.91;100.00;99155.13;5091434;28;20198;-55
2023/08/15 04:24:26;;;;;;;0.10;0.10;;;;;;;19.92;100.00;99162.19;5091407;28;20194;-55
2023/08/15 04:27:13;;;;;;;0.10;0.10;;;;;;;19.85;100.00;99177.25;5091406;28;20361;-55
2023/08/15 04:30:01;;;;;;;0.10;0.10;;;;;;;19.95;100.00;99196.81;5091370;28;20268;-56
2023/08/15 04:32:48;;;;;;;0.10;0.10;;;;;;;19.87;100.00;99194.06;5091370;28;20218;-55
2023/08/15 04:35:35;;;;;;;0.10;0.10;;;;;;;19.77;100.00;99227.41;5091272;28;20190;-55
2023/08/15 04:38:22;;;;;;;0.10;0.10;;;;;;;19.63;100.00;99220.75;5090872;28;20194;-55
2023/08/15 04:41:09;;;;;;;0.10;0.10;;;;;;;19.78;100.00;99235.31;5096619;28;20264;-55
2023/08/15 04:43:56;;;;;;;0.10;0.10;;;;;;;19.52;100.00;99229.88;5096293;28;20194;-55
2023/08/15 04:46:45;;;;;;;0.10;0.10;;;;;;;19.54;100.00;99225.16;5096437;28;20305;-55
2023/08/15 04:49:33;;;;;;;0.10;0.10;;;;;;;19.68;100.00;99227.34;5096525;28;20190;-55
2023/08/15 04:52:20;;;;;;;0.00;0.00;;;;;;;19.78;100.00;99248.75;5094242;28;20202;-55
2023/08/15 04:55:10;;;;;;;0.10;0.10;;;;;;;19.80;100.00;99270.97;5095690;28;20694;-55
2023/08/15 04:57:58;;;;;;;0.10;0.10;;;;;;;19.85;100.00;99284.78;5095393;28;20246;-56
2023/08/15 05:00:45;;;;;;;0.10;0.10;;;;;;;19.89;100.00;99271.91;5095286;28;20198;-55
2023/08/15 05:03:33;;;;;;;0.10;0.10;;;;;;;19.98;100.00;99273.66;5094660;28;20190;-56
2023/08/15 05:06:20;;;;;;;0.00;0.00;;;;;;;20.07;100.00;99290.69;5095132;28;20309;-55
2023/08/15 05:09:07;;;;;;;0.10;0.10;;;;;;;20.18;100.00;99303.91;5095042;28;20198;-56
2023/08/15 05:11:55;;;;;;;0.10;0.10;;;;;;;20.19;100.00;99293.00;5094689;28;20191;-56
2023/08/15 05:14:43;;;;;;;0.10;0.10;;;;;;;20.34;100.00;99300.47;5094614;28;20223;-55
2023/08/15 05:17:29;;;;;;;0.10;0.10;;;;;;;20.40;100.00;99307.94;5094919;28;20267;-55
2023/08/15 05:20:19;;;;;;;0.10;0.10;;;;;;;20.42;100.00;99293.31;5094874;28;20416;-55
2023/08/15 05:23:06;;;;;;;0.10;0.10;;;;;;;20.44;100.00;99303.94;5093523;28;20247;-55
2023/08/15 05:25:54;;;;;;;0.10;0.10;;;;;;;20.34;100.00;99252.88;5094739;28;20195;-56
2023/08/15 05:28:41;;;;;;;0.10;0.10;;;;;;;20.29;100.00;99214.88;5094748;28;20219;-55
2023/08/15 05:31:30;;;;;;;0.10;0.10;;;;;;;20.25;100.00;99173.97;5094649;28;20194;-56
2023/08/15 05:34:17;;;;;;;0.10;0.10;;;;;;;20.18;100.00;99183.72;5095129;28;20260;-56
2023/08/15 05:37:05;;;;;;;0.10;0.10;;;;;;;20.23;100.00;99189.44;5093614;28;20230;-56
2023/08/15 05:39:52;;;;;;;0.10;0.10;;;;;;;20.16;100.00;99161.47;5094449;28;20195;-56
2023/08/15 05:42:39;;;;;;;0.10;0.10;;;;;;;20.15;100.00;99114.06;5094459;28;20206;-56
2023/08/15 05:45:26;;;;;;;0.10;0.10;;;;;;;20.09;100.00;99089.69;5095331;28;20667;-56
2023/08/15 05:48:13;;;;;;;0.10;0.10;;;;;;;20.18;100.00;99102.19;5095460;28;20194;-58
2023/08/15 05:51:00;;;;;;;0.10;0.10;;;;;;;20.19;100.00;99110.06;5094647;28;20269;-56
2023/08/15 05:53:48;;;;;;;0.10;0.10;;;;;;;20.23;100.00;99116.81;5094042;28;20245;-56
2023/08/15 05:56:35;;;;;;;0.10;0.10;;;;;;;20.29;100.00;99139.56;5095574;28;20237;-55
2023/08/15 05:59:22;;;;;;;0.05;0.05;;;;;;;20.33;100.00;99137.38;5095185;28;20264;-56
2023/08/15 06:02:09;;;;;;;0.10;0.10;;;;;;;20.39;100.00;99148.34;5094954;28;20524;-56
2023/08/15 06:04:57;;;;;;;0.10;0.10;;;;;;;20.33;100.00;99170.50;5095107;28;20263;-56
2023/08/15 06:07:44;;;;;;;0.00;0.00;;;;;;;20.42;100.00;99166.00;5093698;28;20203;-56
2023/08/15 06:10:32;;;;;;;0.03;0.03;;;;;;;20.48;100.00;99176.16;5094656;28;20212;-56
2023/08/15 06:13:19;;;;;;;0.10;0.10;;;;;;;20.55;100.00;99185.25;5094917;28;20191;-56
2023/08/15 06:16:06;;;;;;;0.10;0.10;;;;;;;20.50;100.00;99203.75;5094988;28;20203;-55
2023/08/15 06:18:53;;;;;;;0.10;0.10;;;;;;;20.61;100.00;99205.31;5094589;28;20199;-55
2023/08/15 06:21:41;;;;;;;0.10;0.10;;;;;;;20.78;100.00;99215.16;5093413;28;20191;-56
2023/08/15 06:24:28;;;;;;;0.10;0.10;;;;;;;20.68;100.00;99215.28;5094828;28;20206;-56
2023/08/15 06:27:16;;;;;;;0.10;0.10;;;;;;;20.83;100.00;99207.41;5094434;28;20194;-56
2023/08/15 06:30:03;;;;;;;0.10;0.10;;;;;;;20.95;100.00;99214.22;5094562;28;20261;-55
2023/08/15 06:32:50;;;;;;;0.10;0.10;;;;;;;20.98;100.00;99215.75;5094519;28;20217;-56
2023/08/15 06:35:37;;;;;;;0.10;0.10;;;;;;;21.00;100.00;99219.09;5093892;28;20265;-56
2023/08/15 06:38:25;;;;;;;0.10;0.10;;;;;;;21.11;100.00;99216.94;5093180;28;20199;-56
2023/08/15 06:41:12;;;;;;;0.10;0.10;;;;;;;21.16;100.00;99216.47;5094306;28;20225;-56
2023/08/15 06:44:00;;;;;;;0.10;0.10;;;;;;;21.41;100.00;99210.13;5094160;28;20305;-56
2023/08/15 06:46:47;;;;;;;0.10;0.10;;;;;;;21.43;100.00;99213.53;5094311;28;20199;-56
2023/08/15 06:49:34;;;;;;;0.10;0.10;;;;;;;21.46;100.00;99204.25;5094375;28;20195;-55
2023/08/15 06:52:21;;;;;;;0.10;0.10;;;;;;;21.54;100.00;99187.25;5092675;28;20198;-56
2023/08/15 06:55:08;;;;;;;0.10;0.10;;;;;;;21.54;100.00;99168.41;5093849;28;20218;-56
2023/08/15 06:57:55;;;;;;;0.10;0.10;;;;;;;21.72;100.00;99171.78;5093965;28;20237;-56
2023/08/15 07:00:45;;;;;;;0.10;0.10;;;;;;;22.00;100.00;99164.13;5093134;28;20211;-55
2023/08/15 07:03:33;;;;;;;0.00;0.00;;;;;;;22.04;100.00;99154.69;5093938;28;20686;-56
2023/08/15 07:06:20;;;;;;;0.10;0.10;;;;;;;22.18;100.00;99143.22;5094068;28;20195;-56
2023/08/15 07:09:07;;;;;;;0.10;0.10;;;;;;;22.16;100.00;99144.41;5093598;28;20187;-55
2023/08/15 07:11:54;;;;;;;0.10;0.10;;;;;;;22.08;100.00;99137.19;5093984;28;20240;-55
2023/08/15 07:14:41;;;;;;;0.10;0.10;;;;;;;22.36;100.00;99134.06;5093631;28;20329;-56
2023/08/15 07:17:29;;;;;;;0.10;0.10;;;;;;;22.59;100.00;99115.25;5093482;28;20211;-55
2023/08/15 07:20:16;;;;;;;0.10;0.10;;;;;;;22.45;100.00;99114.97;5093589;28;20318;-55
2023/08/15 07:23:03;;;;;;;0.10;0.10;;;;;;;22.56;100.00;99105.63;5092442;28;20198;-56
2023/08/15 07:25:50;;;;;;;0.10;0.10;;;;;;;22.76;100.00;99111.44;5093768;28;20190;-56
2023/08/15 07:28:37;;;;;;;0.10;0.10;;;;;;;23.00;100.00;99108.63;5093805;28;20210;-56
2023/08/15 07:31:24;;;;;;;0.10;0.10;;;;;;;23.17;100.00;99084.22;5093766;28;20199;-55
2023/08/15 07:34:12;;;;;;;0.10;0.10;;;;;;;23.24;100.00;99086.00;5093241;28;20191;-55
2023/08/15 07:36:59;;;;;;;0.10;0.10;;;;;;;23.49;100.00;99085.78;5091695;28;20226;-56
2023/08/15 07:39:46;;;;;;;0.03;0.03;;;;;;;23.37;100.00;99078.13;5093248;28;20191;-55
2023/08/15 07:42:33;;;;;;;0.10;0.10;;;;;;;23.77;100.00;99075.25;5093253;28;20309;-55
2023/08/15 07:45:21;;;;;;;0.10;0.10;;;;;;;23.88;100.00;99070.22;5092831;28;20194;-56
2023/08/15 07:48:08;;;;;;;0.10;0.10;;;;;;;24.04;100.00;99079.19;5093132;28;20203;-55
2023/08/15 07:50:57;;;;;;;0.10;0.10;;;;;;;24.48;100.00;99081.88;5093220;28;20198;-56
2023/08/15 07:53:44;;;;;;;0.10;0.10;;;;;;;24.57;100.00;99078.03;5091866;28;20206;-55
2023/08/15 07:56:33;;;;;;;0.10;0.10;;;;;;;24.44;100.00;99076.03;5092631;28;20234;-55
2023/08/15 07:59:21;;;;;;;0.00;0.00;;;;;;;24.48;100.00;99087.31;5092853;28;20186;-55
2023/08/15 08:02:08;;;;;;;0.08;0.08;;;;;;;24.48;100.00;99082.72;5092901;28;20198;-55
2023/08/15 08:04:55;;;;;;;0.00;0.00;;;;;;;24.12;100.00;99085.31;5092886;28;20260;-55
2023/08/15 08:07:44;;;;;;;0.00;0.00;;;;;;;24.37;100.00;99082.38;5091725;28;20264;-55
2023/08/15 08:10:32;;;;;;;0.10;0.10;;;;;;;24.43;100.00;99087.03;5092836;28;20186;-55
2023/08/15 08:13:19;;;;;;;0.10;0.10;;;;;;;24.63;100.00;99088.13;5092532;28;20225;-55
2023/08/15 08:16:06;;;;;;;0.10;0.10;;;;;;;24.97;100.00;99092.03;5092594;28;20238;-55
2023/08/15 08:18:53;;;;;;;0.00;0.00;;;;;;;24.43;100.00;99084.34;5092695;28;20260;-55
2023/08/15 08:21:40;;;;;;;0.00;0.00;;;;;;;24.45;100.00;99085.81;5091610;28;20272;-56
2023/08/15 08:24:28;;;;;;;0.10;0.10;;;;;;;24.82;100.00;99092.09;5092549;28;20199;-55
2023/08/15 08:27:15;;;;;;;0.08;0.08;;;;;;;25.00;100.00;99086.25;5092692;28;20210;-55
2023/08/15 08:30:02;;;;;;;0.10;0.10;;;;;;;24.90;100.00;99083.00;5092354;28;20199;-55
2023/08/15 08:32:50;;;;;;;0.00;0.00;;;;;;;25.12;100.00;99090.16;5092502;28;20186;-55
2023/08/15 08:35:37;;;;;;;0.10;0.10;;;;;;;25.25;100.00;99093.00;5091115;28;20217;-55
2023/08/15 08:38:24;;;;;;;0.10;0.10;;;;;;;25.37;100.00;99085.16;5090984;28;20317;-55
2023/08/15 08:41:15;;;;;;;0.00;0.00;;;;;;;25.09;100.00;99083.25;5092511;28;20276;-55
2023/08/15 08:44:03;;;;;;;0.10;0.10;;;;;;;25.31;100.00;99085.97;5092414;28;20308;-55
2023/08/15 08:46:50;;;;;;;0.10;0.10;;;;;;;25.12;100.00;99090.16;5092650;28;20253;-55
2023/08/15 08:49:39;;;;;;;0.10;0.10;;;;;;;25.53;100.00;99079.47;5092307;28;20194;-55
2023/08/15 08:52:27;;;;;;;0.00;0.00;;;;;;;25.89;100.00;99073.09;5091138;28;20194;-56
2023/08/15 08:55:15;;;;;;;0.00;0.00;;;;;;;25.91;100.00;99080.00;5092201;28;20211;-55
2023/08/15 08:58:06;;;;;;;0.10;0.10;;;;;;;25.78;100.00;99074.50;5092271;28;20268;-55
2023/08/15 09:00:53;;;;;;;0.10;0.10;;;;;;;25.84;100.00;99075.56;5092244;28;20442;-55
2023/08/15 09:03:40;;;;;;;0.00;0.00;;;;;;;26.03;100.00;99080.28;5092063;28;20310;-55
2023/08/15 09:06:27;;;;;;;0.00;0.00;;;;;;;26.14;100.00;99076.16;5091221;28;20199;-55
2023/08/15 09:09:14;;;;;;;0.10;0.10;;;;;;;26.04;100.00;99076.53;5091208;28;20198;-56
2023/08/15 09:12:01;;;;;;;0.00;0.00;;;;;;;26.52;100.00;99076.59;5092043;28;20195;-55
2023/08/15 09:14:49;;;;;;;0.00;0.00;;;;;;;26.21;100.00;99082.47;5092248;28;20354;-55
2023/08/15 09:17:36;;;;;;;0.10;0.10;;;;;;;26.48;100.00;99081.59;5092053;28;20266;-55
2023/08/15 09:20:23;;;;;;;0.10;0.10;;;;;;;26.21;100.00;99075.16;5091920;28;20290;-55
2023/08/15 09:23:10;;;;;;;0.10;0.10;;;;;;;26.50;100.00;99081.41;5090826;28;20191;-55
2023/08/15 09:25:57;;;;;;;0.08;0.08;;;;;;;27.28;100.00;99088.13;5095169;28;20256;-55
2023/08/15 09:28:47;;;;;;;0.00;0.00;;;;;;;26.96;100.00;99086.16;5095622;28;20198;-55
2023/08/15 09:31:36;;;;;;;0.00;0.00;;;;;;;27.42;100.00;99091.72;5095601;28;20241;-55
2023/08/15 09:34:22;;;;;;;0.00;0.00;;;;;;;27.30;100.00;99091.47;5095822;28;20194;-55
2023/08/15 09:37:09;;;;;;;0.00;0.00;;;;;;;27.88;100.00;99104.47;5093658;28;20246;-55
2023/08/15 09:39:57;;;;;;;0.00;0.00;;;;;;;28.07;100.00;99086.44;5095523;28;20207;-55
2023/08/15 09:42:45;;;;;;;0.00;0.00;;;;;;;28.34;100.00;99087.25;5095517;28;20245;-55
2023/08/15 09:45:32;;;;;;;0.10;0.10;;;;;;;27.87;100.00;99100.09;5094299;28;20314;-56
2023/08/15 09:48:21;;;;;;;0.00;0.00;;;;;;;28.42;100.00;99093.28;5095436;28;20195;-55
2023/08/15 09:51:11;;;;;;;0.10;0.10;;;;;;;27.91;100.00;99102.19;5095365;28;20193;-55
2023/08/15 09:54:01;;;;;;;0.00;0.00;;;;;;;28.23;100.00;99097.72;5095161;28;20198;-55
2023/08/15 09:56:47;;;;;;;0.00;0.00;;;;;;;28.78;100.00;99090.00;5095106;28;20257;-55
2023/08/15 09:59:36;;;;;;;0.00;0.00;;;;;;;28.95;100.00;99090.38;5095201;28;20186;-55
2023/08/15 10:02:24;;;;;;;0.00;0.00;;;;;;;29.28;100.00;99083.84;5095161;28;20194;-55
2023/08/15 10:05:22;;;;;;;0.00;0.00;;;;;;;28.72;100.00;99093.59;5095146;28;20270;-55
2023/08/15 10:08:10;;;;;;;0.00;0.00;;;;;;;29.03;100.00;99094.72;5093882;28;20767;-55
2023/08/15 10:10:58;;;;;;;0.00;0.00;;;;;;;28.92;100.00;99107.16;5095053;28;20207;-55
2023/08/15 10:13:47;;;;;;;0.00;0.00;;;;;;;29.39;100.00;99102.25;5094931;28;20671;-55
2023/08/15 10:16:35;;;;;;;0.00;0.00;;;;;;;29.11;100.00;99104.53;5094515;28;20265;-56
2023/08/15 10:19:30;;;;;;;0.00;0.00;;;;;;;30.19;100.00;99106.00;5094937;28;20269;-55
2023/08/15 10:22:19;;;;;;;0.00;0.00;;;;;;;30.53;100.00;99108.38;5093514;28;20257;-56
2023/08/15 10:25:21;;;;;;;0.00;0.00;;;;;;;30.41;100.00;99108.31;5094728;28;20354;-55
2023/08/15 10:28:10;;;;;;;0.00;0.00;;;;;;;29.77;100.00;99115.00;5094677;28;20342;-55
2023/08/15 10:30:57;;;;;;;0.00;0.00;;;;;;;29.87;100.00;99113.44;5094626;28;20230;-56
2023/08/15 10:33:44;;;;;;;0.00;0.00;;;;;;;30.25;99.09;99109.72;5094578;28;20202;-55
2023/08/15 10:36:31;;;;;;;0.00;0.00;;;;;;;30.27;98.75;99102.13;5092738;28;20238;-56
2023/08/15 10:39:20;;;;;;;0.00;0.00;;;;;;;29.88;100.00;99097.88;5094454;28;20206;-55
2023/08/15 10:42:07;;;;;;;0.00;0.00;;;;;;;30.28;99.62;99102.97;5094377;28;20213;-56
2023/08/15 10:44:59;;;;;;;0.00;0.00;;;;;;;30.70;97.19;99101.25;5094126;28;20229;-56
2023/08/15 10:47:46;;;;;;;0.00;0.00;;;;;;;30.78;98.19;99089.97;5094266;28;20723;-56
2023/08/15 10:50:34;;;;;;;0.00;0.00;;;;;;;32.02;88.46;99084.72;5094274;28;20202;-56
2023/08/15 10:53:23;;;;;;;0.00;0.00;;;;;;;33.31;78.04;99080.56;5092857;28;20187;-56
2023/08/15 10:56:12;;;;;;;0.00;0.00;;;;;;;35.74;64.14;99086.78;5094120;28;20226;-56
2023/08/15 10:59:00;;;;;;;0.00;0.00;;;;;;;38.40;52.33;99091.09;5094087;28;20201;-56
2023/08/15 11:01:48;;;;;;;0.00;0.00;;;;;;;39.61;47.30;99094.38;5094070;28;20269;-56
2023/08/15 11:04:34;;;;;;;0.00;0.00;;;;;;;37.56;50.76;99090.66;5093776;28;20214;-56
2023/08/15 11:07:25;;;;;;;0.00;0.00;;;;;;;38.70;47.74;99093.78;5092822;28;20313;-56
2023/08/15 11:10:13;;;;;;;0.00;0.00;;;;;;;37.35;52.92;99087.06;5093784;28;20214;-56
2023/08/15 11:13:01;;;;;;;0.00;0.00;;;;;;;39.34;48.39;99083.72;5093685;28;20182;-56
2023/08/15 11:15:48;;;;;;;0.00;0.00;;;;;;;40.42;43.74;99099.09;5093825;28;20234;-56
2023/08/15 11:18:35;;;;;;;0.00;0.00;;;;;;;42.37;39.06;99075.53;5093720;28;20278;-56
2023/08/15 11:21:22;;;;;;;0.00;0.00;;;;;;;39.25;46.73;99089.06;5092570;28;20199;-57
2023/08/15 11:24:11;;;;;;;0.00;0.00;;;;;;;37.09;51.54;99085.31;5093725;28;20219;-56
2023/08/15 11:26:58;;;;;;;0.00;0.00;;;;;;;34.73;59.40;99070.03;5093575;28;20190;-56
2023/08/15 11:29:56;;;;;;;0.00;0.00;;;;;;;33.11;72.99;99066.47;5093286;28;20187;-56
2023/08/15 11:32:44;;;;;;;0.00;0.00;;;;;;;31.66;82.58;99074.81;5093403;28;20198;-56
2023/08/15 11:35:30;;;;;;;0.00;0.00;;;;;;;30.39;96.21;99081.16;5093064;28;20245;-55
2023/08/15 11:38:18;;;;;;;0.00;0.00;;;;;;;29.49;100.00;99088.13;5091638;28;20230;-55
2023/08/15 11:41:06;;;;;;;0.00;0.00;;;;;;;28.66;100.00;99099.06;5093143;28;20191;-55
2023/08/15 11:43:53;;;;;;;0.00;0.00;;;;;;;28.39;100.00;99131.06;5093275;28;21361;-55
2023/08/15 11:46:43;;;;;;;0.00;0.00;;;;;;;28.16;100.00;99155.97;5092605;28;20191;-55
2023/08/15 11:49:32;;;;;;;0.03;0.03;;;;;;;23.85;100.00;99173.41;5092398;28;20424;-56
2023/08/15 11:52:31;;;;;;;0.10;0.10;;;;;;;23.14;100.00;99175.41;5091812;28;20190;-56
2023/08/15 11:55:19;;;;;;;0.10;0.10;;;;;;;23.37;100.00;99188.97;5093189;28;20194;-56
2023/08/15 11:58:22;;;;;;;0.10;0.10;;;;;;;23.40;100.00;99217.50;5092467;28;20353;-56
2023/08/15 12:01:11;;;;;;;0.10;0.10;;;;;;;23.47;100.00;99228.44;5092465;28;20182;-56
2023/08/15 12:04:03;;;;;;;0.10;0.10;;;;;;;23.37;100.00;99212.47;5092741;28;20198;-55
2023/08/15 12:06:51;;;;;;;0.10;0.10;;;;;;;23.13;100.00;99208.88;5091189;28;20643;-55
2023/08/15 12:09:38;;;;;;;0.10;0.10;;;;;;;23.13;100.00;99208.03;5092365;28;20245;-55
2023/08/15 12:12:25;;;;;;;0.10;0.10;;;;;;;22.87;100.00;99196.66;5092898;28;20465;-55
2023/08/15 12:15:13;;;;;;;0.10;0.10;;;;;;;22.77;100.00;99186.03;5092724;28;20199;-55
2023/08/15 12:18:00;;;;;;;0.10;0.10;;;;;;;22.77;100.00;99184.19;5092319;28;20280;-55
2023/08/15 12:20:48;;;;;;;0.10;0.10;;;;;;;22.87;100.00;99196.66;5092790;28;20191;-55
2023/08/15 12:23:35;;;;;;;0.10;0.10;;;;;;;22.92;100.00;99197.84;5091379;28;20288;-55
2023/08/15 12:26:22;;;;;;;0.10;0.10;;;;;;;23.02;100.00;99216.53;5091670;28;20190;-55
2023/08/15 12:29:08;;;;;;;0.10;0.10;;;;;;;22.98;100.00;99224.16;5092512;28;20260;-55
2023/08/15 12:31:57;;;;;;;0.10;0.10;;;;;;;22.94;100.00;99225.50;5092457;28;20217;-55
2023/08/15 12:34:43;;;;;;;0.10;0.10;;;;;;;23.27;100.00;99230.78;5092567;28;20288;-55
2023/08/15 12:37:32;;;;;;;0.10;0.10;;;;;;;23.42;100.00;99251.44;5090933;28;20296;-55
2023/08/15 12:40:18;;;;;;;0.10;0.10;;;;;;;23.55;100.00;99263.56;5092450;28;20699;-55
2023/08/15 12:43:16;;;;;;;0.10;0.10;;;;;;;23.75;100.00;99248.56;5092386;28;20233;-55
2023/08/15 12:46:03;;;;;;;0.10;0.10;;;;;;;23.80;100.00;99248.00;5092314;28;20203;-56
2023/08/15 12:48:50;;;;;;;0.10;0.10;;;;;;;23.94;100.00;99237.25;5092283;28;20313;-55
2023/08/15 12:51:37;;;;;;;0.10;0.10;;;;;;;24.13;100.00;99237.78;5091202;28;20229;-55
2023/08/15 12:54:25;;;;;;;0.10;0.10;;;;;;;24.14;100.00;99234.88;5092376;28;20264;-55
2023/08/15 12:57:12;;;;;;;0.10;0.10;;;;;;;23.95;100.00;99236.22;5092179;28;20249;-55
2023/08/15 12:59:59;;;;;;;0.10;0.10;;;;;;;23.96;100.00;99254.16;5093858;28;20265;-55
2023/08/15 13:02:46;;;;;;;0.08;0.08;;;;;;;23.81;100.00;99257.81;5096271;28;20199;-55